Lewis Center, Ohio
Current Conditions -  °F | °C
As of 10:36 PM on Saturday 25 Oct 2014 (Local Time) from KDLZ Reporting Station
Clear Clear  
Wind Chill: 50°   Ceiling: Unl
Heat Index: 50°   Visibility: 10mi
Dew Point: 41°   Wind: 3mph
Humidity: 71%   Direction: 310°NW
Pressure: 29.88"   Gusts: NA
Location:  40.2°N, 83.01°W
Report Text: KDLZ 260236Z AUTO 31003KT 10SM CLR 10/05 A2988 RMK AO2
Loading
Personal Weather Stations






























Interactive Weather Map
Tropical Storm Tracking
New forecast layout! Learn more

10-Day Weather Forecast

Advertisements
Track Severe Weather on mobile